sensor_id;sensor_type;location;lat;lon;timestamp;P1;durP1;ratioP1;P2;durP2;ratioP2
62711;SDS011;48772;55.586;37.730;2023-09-30T00:00:18;24.45;;;12.35;;
62711;SDS011;48772;55.586;37.730;2023-09-30T00:02:44;21.83;;;12.98;;
62711;SDS011;48772;55.586;37.730;2023-09-30T00:05:10;16.95;;;11.05;;
62711;SDS011;48772;55.586;37.730;2023-09-30T00:07:36;19.67;;;11.18;;
62711;SDS011;48772;55.586;37.730;2023-09-30T00:10:02;18.30;;;11.65;;
62711;SDS011;48772;55.586;37.730;2023-09-30T00:12:29;23.17;;;11.55;;
62711;SDS011;48772;55.586;37.730;2023-09-30T00:14:55;23.33;;;12.70;;
62711;SDS011;48772;55.586;37.730;2023-09-30T00:17:21;24.02;;;11.05;;
62711;SDS011;48772;55.586;37.730;2023-09-30T00:19:47;16.90;;;11.10;;
62711;SDS011;48772;55.586;37.730;2023-09-30T00:22:13;17.70;;;11.30;;
62711;SDS011;48772;55.586;37.730;2023-09-30T00:24:39;24.75;;;12.60;;
62711;SDS011;48772;55.586;37.730;2023-09-30T00:27:05;21.27;;;11.18;;
62711;SDS011;48772;55.586;37.730;2023-09-30T00:29:31;18.13;;;12.10;;
62711;SDS011;48772;55.586;37.730;2023-09-30T00:31:57;28.30;;;12.65;;
62711;SDS011;48772;55.586;37.730;2023-09-30T00:34:23;16.67;;;11.38;;
62711;SDS011;48772;55.586;37.730;2023-09-30T00:36:49;26.45;;;12.50;;
62711;SDS011;48772;55.586;37.730;2023-09-30T00:39:15;26.20;;;12.63;;
62711;SDS011;48772;55.586;37.730;2023-09-30T00:41:41;16.40;;;10.88;;
62711;SDS011;48772;55.586;37.730;2023-09-30T00:44:07;33.70;;;12.68;;
62711;SDS011;48772;55.586;37.730;2023-09-30T00:46:35;23.90;;;12.30;;
62711;SDS011;48772;55.586;37.730;2023-09-30T00:49:03;20.42;;;12.10;;
62711;SDS011;48772;55.586;37.730;2023-09-30T00:51:30;19.80;;;11.45;;
62711;SDS011;48772;55.586;37.730;2023-09-30T00:53:58;17.65;;;11.20;;
62711;SDS011;48772;55.586;37.730;2023-09-30T00:56:26;20.73;;;11.40;;
62711;SDS011;48772;55.586;37.730;2023-09-30T00:58:55;20.77;;;11.77;;
62711;SDS011;48772;55.586;37.730;2023-09-30T01:01:21;19.63;;;11.60;;
62711;SDS011;48772;55.586;37.730;2023-09-30T01:03:47;22.92;;;11.70;;
62711;SDS011;48772;55.586;37.730;2023-09-30T01:06:13;20.50;;;12.65;;
62711;SDS011;48772;55.586;37.730;2023-09-30T01:08:39;22.80;;;12.88;;
62711;SDS011;48772;55.586;37.730;2023-09-30T01:11:06;19.27;;;12.43;;
62711;SDS011;48772;55.586;37.730;2023-09-30T01:13:35;19.92;;;12.43;;
62711;SDS011;48772;55.586;37.730;2023-09-30T01:16:06;21.50;;;12.57;;
62711;SDS011;48772;55.586;37.730;2023-09-30T01:18:35;18.02;;;12.55;;
62711;SDS011;48772;55.586;37.730;2023-09-30T01:21:03;25.00;;;13.95;;
62711;SDS011;48772;55.586;37.730;2023-09-30T01:23:33;24.05;;;11.77;;
62711;SDS011;48772;55.586;37.730;2023-09-30T01:26:03;20.25;;;12.02;;
62711;SDS011;48772;55.586;37.730;2023-09-30T01:28:31;21.55;;;13.20;;
62711;SDS011;48772;55.586;37.730;2023-09-30T01:30:57;19.98;;;12.68;;
62711;SDS011;48772;55.586;37.730;2023-09-30T01:33:23;20.25;;;13.25;;
62711;SDS011;48772;55.586;37.730;2023-09-30T01:35:49;17.27;;;11.80;;
62711;SDS011;48772;55.586;37.730;2023-09-30T01:38:15;27.02;;;12.63;;
62711;SDS011;48772;55.586;37.730;2023-09-30T01:40:41;22.67;;;12.15;;
62711;SDS011;48772;55.586;37.730;2023-09-30T01:43:10;18.38;;;12.32;;
62711;SDS011;48772;55.586;37.730;2023-09-30T01:45:39;19.02;;;12.82;;
62711;SDS011;48772;55.586;37.730;2023-09-30T01:48:06;24.45;;;11.45;;
62711;SDS011;48772;55.586;37.730;2023-09-30T01:50:32;17.45;;;11.13;;
62711;SDS011;48772;55.586;37.730;2023-09-30T01:52:58;17.30;;;12.10;;
62711;SDS011;48772;55.586;37.730;2023-09-30T01:55:24;21.20;;;11.95;;
62711;SDS011;48772;55.586;37.730;2023-09-30T01:57:50;20.65;;;11.90;;
62711;SDS011;48772;55.586;37.730;2023-09-30T02:00:19;21.98;;;12.77;;
62711;SDS011;48772;55.586;37.730;2023-09-30T02:02:45;20.50;;;12.45;;
62711;SDS011;48772;55.586;37.730;2023-09-30T02:05:11;21.02;;;13.23;;
62711;SDS011;48772;55.586;37.730;2023-09-30T02:07:37;23.73;;;12.00;;
62711;SDS011;48772;55.586;37.730;2023-09-30T02:10:03;19.67;;;12.85;;
62711;SDS011;48772;55.586;37.730;2023-09-30T02:12:34;20.85;;;12.25;;
62711;SDS011;48772;55.586;37.730;2023-09-30T02:15:02;21.33;;;12.35;;
62711;SDS011;48772;55.586;37.730;2023-09-30T02:17:32;16.42;;;11.35;;
62711;SDS011;48772;55.586;37.730;2023-09-30T02:19:59;23.27;;;10.50;;
62711;SDS011;48772;55.586;37.730;2023-09-30T02:22:46;19.10;;;12.00;;
62711;SDS011;48772;55.586;37.730;2023-09-30T02:25:13;18.80;;;11.48;;
62711;SDS011;48772;55.586;37.730;2023-09-30T02:27:39;21.27;;;11.50;;
62711;SDS011;48772;55.586;37.730;2023-09-30T02:30:09;18.33;;;10.07;;
62711;SDS011;48772;55.586;37.730;2023-09-30T02:32:38;18.63;;;11.02;;
62711;SDS011;48772;55.586;37.730;2023-09-30T02:35:05;17.00;;;12.27;;
62711;SDS011;48772;55.586;37.730;2023-09-30T02:37:32;21.50;;;11.80;;
62711;SDS011;48772;55.586;37.730;2023-09-30T02:40:05;21.40;;;11.68;;
62711;SDS011;48772;55.586;37.730;2023-09-30T02:42:39;17.05;;;12.38;;
62711;SDS011;48772;55.586;37.730;2023-09-30T02:45:07;19.83;;;12.32;;
62711;SDS011;48772;55.586;37.730;2023-09-30T02:47:34;21.02;;;11.40;;
62711;SDS011;48772;55.586;37.730;2023-09-30T02:50:00;20.02;;;11.93;;
62711;SDS011;48772;55.586;37.730;2023-09-30T02:52:27;19.27;;;11.77;;
62711;SDS011;48772;55.586;37.730;2023-09-30T02:54:56;22.70;;;11.85;;
62711;SDS011;48772;55.586;37.730;2023-09-30T02:57:24;14.90;;;10.90;;
62711;SDS011;48772;55.586;37.730;2023-09-30T02:59:50;16.80;;;10.75;;
62711;SDS011;48772;55.586;37.730;2023-09-30T03:02:24;26.45;;;11.55;;
62711;SDS011;48772;55.586;37.730;2023-09-30T03:04:50;18.15;;;10.88;;
62711;SDS011;48772;55.586;37.730;2023-09-30T03:07:20;16.45;;;10.73;;
62711;SDS011;48772;55.586;37.730;2023-09-30T03:09:46;15.82;;;11.30;;
62711;SDS011;48772;55.586;37.730;2023-09-30T03:12:13;15.10;;;10.18;;
62711;SDS011;48772;55.586;37.730;2023-09-30T03:14:40;20.20;;;11.32;;
62711;SDS011;48772;55.586;37.730;2023-09-30T03:17:06;16.13;;;11.80;;
62711;SDS011;48772;55.586;37.730;2023-09-30T03:19:37;22.52;;;12.13;;
62711;SDS011;48772;55.586;37.730;2023-09-30T03:22:04;16.35;;;11.02;;
62711;SDS011;48772;55.586;37.730;2023-09-30T03:24:31;19.95;;;11.85;;
62711;SDS011;48772;55.586;37.730;2023-09-30T03:26:57;17.33;;;12.02;;
62711;SDS011;48772;55.586;37.730;2023-09-30T03:29:23;23.92;;;13.55;;
62711;SDS011;48772;55.586;37.730;2023-09-30T03:31:49;23.45;;;13.48;;
62711;SDS011;48772;55.586;37.730;2023-09-30T03:34:16;20.83;;;12.93;;
62711;SDS011;48772;55.586;37.730;2023-09-30T03:36:42;22.33;;;13.50;;
62711;SDS011;48772;55.586;37.730;2023-09-30T03:39:09;20.25;;;13.02;;
62711;SDS011;48772;55.586;37.730;2023-09-30T03:41:40;19.00;;;12.38;;
62711;SDS011;48772;55.586;37.730;2023-09-30T03:44:06;18.95;;;12.98;;
62711;SDS011;48772;55.586;37.730;2023-09-30T03:46:32;18.70;;;12.00;;
62711;SDS011;48772;55.586;37.730;2023-09-30T03:48:58;20.50;;;12.25;;
62711;SDS011;48772;55.586;37.730;2023-09-30T03:51:24;21.98;;;12.48;;
62711;SDS011;48772;55.586;37.730;2023-09-30T03:53:51;20.15;;;12.48;;
62711;SDS011;48772;55.586;37.730;2023-09-30T03:56:18;20.90;;;12.50;;
62711;SDS011;48772;55.586;37.730;2023-09-30T03:58:44;20.15;;;12.82;;
62711;SDS011;48772;55.586;37.730;2023-09-30T04:01:10;16.00;;;11.85;;
62711;SDS011;48772;55.586;37.730;2023-09-30T04:03:39;18.77;;;12.50;;
62711;SDS011;48772;55.586;37.730;2023-09-30T04:06:06;17.23;;;11.30;;
62711;SDS011;48772;55.586;37.730;2023-09-30T04:08:32;18.13;;;11.90;;
62711;SDS011;48772;55.586;37.730;2023-09-30T04:10:59;17.35;;;11.25;;
62711;SDS011;48772;55.586;37.730;2023-09-30T04:13:26;17.02;;;11.63;;
62711;SDS011;48772;55.586;37.730;2023-09-30T04:15:53;15.40;;;10.35;;
62711;SDS011;48772;55.586;37.730;2023-09-30T04:18:19;21.38;;;11.35;;
62711;SDS011;48772;55.586;37.730;2023-09-30T04:20:48;18.80;;;11.25;;
62711;SDS011;48772;55.586;37.730;2023-09-30T04:23:14;21.13;;;12.50;;
62711;SDS011;48772;55.586;37.730;2023-09-30T04:25:41;17.02;;;12.15;;
62711;SDS011;48772;55.586;37.730;2023-09-30T04:28:09;20.63;;;10.32;;
62711;SDS011;48772;55.586;37.730;2023-09-30T04:30:34;15.75;;;9.85;;
62711;SDS011;48772;55.586;37.730;2023-09-30T04:33:01;16.95;;;9.73;;
62711;SDS011;48772;55.586;37.730;2023-09-30T04:35:30;17.02;;;10.18;;
62711;SDS011;48772;55.586;37.730;2023-09-30T04:37:56;19.42;;;10.27;;
62711;SDS011;48772;55.586;37.730;2023-09-30T04:40:30;17.83;;;10.40;;
62711;SDS011;48772;55.586;37.730;2023-09-30T04:42:58;19.25;;;10.23;;
62711;SDS011;48772;55.586;37.730;2023-09-30T04:45:25;15.63;;;9.75;;
62711;SDS011;48772;55.586;37.730;2023-09-30T04:47:53;16.60;;;10.75;;
62711;SDS011;48772;55.586;37.730;2023-09-30T04:50:22;14.77;;;9.88;;
62711;SDS011;48772;55.586;37.730;2023-09-30T04:52:48;18.70;;;11.27;;
62711;SDS011;48772;55.586;37.730;2023-09-30T04:55:16;18.58;;;10.13;;
62711;SDS011;48772;55.586;37.730;2023-09-30T04:57:42;16.60;;;10.00;;
62711;SDS011;48772;55.586;37.730;2023-09-30T05:00:14;15.60;;;10.77;;
62711;SDS011;48772;55.586;37.730;2023-09-30T05:02:47;15.00;;;10.85;;
62711;SDS011;48772;55.586;37.730;2023-09-30T05:05:14;16.63;;;9.68;;
62711;SDS011;48772;55.586;37.730;2023-09-30T05:07:40;15.48;;;9.00;;
62711;SDS011;48772;55.586;37.730;2023-09-30T05:10:10;14.43;;;10.07;;
62711;SDS011;48772;55.586;37.730;2023-09-30T05:12:38;19.73;;;10.63;;
62711;SDS011;48772;55.586;37.730;2023-09-30T05:15:06;16.50;;;9.85;;
62711;SDS011;48772;55.586;37.730;2023-09-30T05:17:32;16.25;;;11.05;;
62711;SDS011;48772;55.586;37.730;2023-09-30T05:19:58;21.60;;;11.30;;
62711;SDS011;48772;55.586;37.730;2023-09-30T05:22:25;22.10;;;10.30;;
62711;SDS011;48772;55.586;37.730;2023-09-30T05:24:52;15.20;;;9.70;;
62711;SDS011;48772;55.586;37.730;2023-09-30T05:27:19;18.05;;;9.82;;
62711;SDS011;48772;55.586;37.730;2023-09-30T05:29:45;16.02;;;10.73;;
62711;SDS011;48772;55.586;37.730;2023-09-30T05:32:12;16.73;;;10.18;;
62711;SDS011;48772;55.586;37.730;2023-09-30T05:34:39;15.48;;;10.20;;
62711;SDS011;48772;55.586;37.730;2023-09-30T05:37:05;16.75;;;10.38;;
62711;SDS011;48772;55.586;37.730;2023-09-30T05:39:31;14.55;;;10.45;;
62711;SDS011;48772;55.586;37.730;2023-09-30T05:41:58;16.70;;;9.77;;
62711;SDS011;48772;55.586;37.730;2023-09-30T05:44:24;17.63;;;11.25;;
62711;SDS011;48772;55.586;37.730;2023-09-30T05:46:53;19.90;;;10.27;;
62711;SDS011;48772;55.586;37.730;2023-09-30T05:49:20;14.13;;;9.60;;
62711;SDS011;48772;55.586;37.730;2023-09-30T05:51:46;18.30;;;11.23;;
62711;SDS011;48772;55.586;37.730;2023-09-30T05:54:12;23.27;;;12.23;;
62711;SDS011;48772;55.586;37.730;2023-09-30T05:56:38;18.52;;;11.50;;
62711;SDS011;48772;55.586;37.730;2023-09-30T05:59:05;18.73;;;10.35;;
62711;SDS011;48772;55.586;37.730;2023-09-30T06:01:32;18.45;;;11.35;;
62711;SDS011;48772;55.586;37.730;2023-09-30T06:03:59;19.45;;;11.43;;
62711;SDS011;48772;55.586;37.730;2023-09-30T06:06:26;20.35;;;11.50;;
62711;SDS011;48772;55.586;37.730;2023-09-30T06:08:55;17.17;;;11.48;;
62711;SDS011;48772;55.586;37.730;2023-09-30T06:11:23;18.27;;;11.77;;
62711;SDS011;48772;55.586;37.730;2023-09-30T06:13:57;22.75;;;11.68;;
62711;SDS011;48772;55.586;37.730;2023-09-30T06:16:26;15.70;;;11.80;;
62711;SDS011;48772;55.586;37.730;2023-09-30T06:18:53;18.77;;;12.70;;
62711;SDS011;48772;55.586;37.730;2023-09-30T06:21:20;22.27;;;12.43;;
62711;SDS011;48772;55.586;37.730;2023-09-30T06:23:47;23.33;;;12.68;;
62711;SDS011;48772;55.586;37.730;2023-09-30T06:26:14;18.95;;;12.70;;
62711;SDS011;48772;55.586;37.730;2023-09-30T06:28:43;19.98;;;11.60;;
62711;SDS011;48772;55.586;37.730;2023-09-30T06:31:10;19.33;;;12.23;;
62711;SDS011;48772;55.586;37.730;2023-09-30T06:33:37;22.42;;;12.40;;
62711;SDS011;48772;55.586;37.730;2023-09-30T06:36:12;25.08;;;12.80;;
62711;SDS011;48772;55.586;37.730;2023-09-30T06:38:43;17.65;;;11.80;;
62711;SDS011;48772;55.586;37.730;2023-09-30T06:41:15;21.55;;;12.15;;
62711;SDS011;48772;55.586;37.730;2023-09-30T06:43:42;21.75;;;12.00;;
62711;SDS011;48772;55.586;37.730;2023-09-30T06:46:08;14.82;;;10.95;;
62711;SDS011;48772;55.586;37.730;2023-09-30T06:48:35;19.13;;;10.38;;
62711;SDS011;48772;55.586;37.730;2023-09-30T06:51:01;18.75;;;11.18;;
62711;SDS011;48772;55.586;37.730;2023-09-30T06:53:28;16.13;;;11.45;;
62711;SDS011;48772;55.586;37.730;2023-09-30T06:55:54;20.30;;;10.98;;
62711;SDS011;48772;55.586;37.730;2023-09-30T06:58:20;18.25;;;11.60;;
62711;SDS011;48772;55.586;37.730;2023-09-30T07:00:50;13.35;;;10.23;;
62711;SDS011;48772;55.586;37.730;2023-09-30T07:03:19;16.60;;;10.35;;
62711;SDS011;48772;55.586;37.730;2023-09-30T07:05:54;20.33;;;11.65;;
62711;SDS011;48772;55.586;37.730;2023-09-30T07:08:21;17.13;;;10.90;;
62711;SDS011;48772;55.586;37.730;2023-09-30T07:10:48;23.95;;;11.57;;
62711;SDS011;48772;55.586;37.730;2023-09-30T07:13:18;13.20;;;10.93;;
62711;SDS011;48772;55.586;37.730;2023-09-30T07:15:43;22.00;;;11.45;;
62711;SDS011;48772;55.586;37.730;2023-09-30T07:18:09;21.00;;;12.05;;
62711;SDS011;48772;55.586;37.730;2023-09-30T07:20:37;19.98;;;12.05;;
62711;SDS011;48772;55.586;37.730;2023-09-30T07:23:03;26.15;;;13.35;;
62711;SDS011;48772;55.586;37.730;2023-09-30T07:25:29;23.23;;;12.32;;
62711;SDS011;48772;55.586;37.730;2023-09-30T07:27:57;22.65;;;13.07;;
62711;SDS011;48772;55.586;37.730;2023-09-30T07:30:24;22.25;;;12.77;;
62711;SDS011;48772;55.586;37.730;2023-09-30T07:32:50;18.92;;;12.75;;
62711;SDS011;48772;55.586;37.730;2023-09-30T07:35:17;19.60;;;11.63;;
62711;SDS011;48772;55.586;37.730;2023-09-30T07:37:43;18.23;;;11.57;;
62711;SDS011;48772;55.586;37.730;2023-09-30T07:40:10;19.08;;;12.10;;
62711;SDS011;48772;55.586;37.730;2023-09-30T07:42:37;19.20;;;10.73;;
62711;SDS011;48772;55.586;37.730;2023-09-30T07:45:03;18.23;;;10.80;;
62711;SDS011;48772;55.586;37.730;2023-09-30T07:47:31;19.08;;;11.27;;
62711;SDS011;48772;55.586;37.730;2023-09-30T07:50:00;20.52;;;10.88;;
62711;SDS011;48772;55.586;37.730;2023-09-30T07:52:35;20.02;;;10.70;;
62711;SDS011;48772;55.586;37.730;2023-09-30T07:55:01;15.70;;;8.95;;
62711;SDS011;48772;55.586;37.730;2023-09-30T07:57:30;13.15;;;8.20;;
62711;SDS011;48772;55.586;37.730;2023-09-30T07:59:56;14.10;;;8.40;;
62711;SDS011;48772;55.586;37.730;2023-09-30T08:02:22;13.02;;;7.63;;
62711;SDS011;48772;55.586;37.730;2023-09-30T08:04:49;11.95;;;7.22;;
62711;SDS011;48772;55.586;37.730;2023-09-30T08:07:15;14.65;;;7.40;;
62711;SDS011;48772;55.586;37.730;2023-09-30T08:09:41;12.18;;;7.05;;
62711;SDS011;48772;55.586;37.730;2023-09-30T08:12:07;11.00;;;6.88;;
62711;SDS011;48772;55.586;37.730;2023-09-30T08:14:33;15.50;;;7.47;;
62711;SDS011;48772;55.586;37.730;2023-09-30T08:16:59;10.48;;;7.15;;
62711;SDS011;48772;55.586;37.730;2023-09-30T08:19:24;12.13;;;6.80;;
62711;SDS011;48772;55.586;37.730;2023-09-30T08:21:50;10.38;;;6.45;;
62711;SDS011;48772;55.586;37.730;2023-09-30T08:24:17;16.00;;;6.85;;
62711;SDS011;48772;55.586;37.730;2023-09-30T08:26:43;14.82;;;6.97;;
62711;SDS011;48772;55.586;37.730;2023-09-30T08:29:09;12.27;;;7.53;;
62711;SDS011;48772;55.586;37.730;2023-09-30T08:31:35;12.40;;;7.22;;
62711;SDS011;48772;55.586;37.730;2023-09-30T08:34:01;11.60;;;7.10;;
62711;SDS011;48772;55.586;37.730;2023-09-30T08:36:29;16.98;;;6.72;;
62711;SDS011;48772;55.586;37.730;2023-09-30T08:38:56;10.77;;;6.80;;
62711;SDS011;48772;55.586;37.730;2023-09-30T08:41:24;20.23;;;7.47;;
62711;SDS011;48772;55.586;37.730;2023-09-30T08:43:59;13.00;;;5.63;;
62711;SDS011;48772;55.586;37.730;2023-09-30T08:46:28;10.65;;;6.03;;
62711;SDS011;48772;55.586;37.730;2023-09-30T08:49:04;10.05;;;6.32;;
62711;SDS011;48772;55.586;37.730;2023-09-30T08:51:31;10.15;;;6.18;;
62711;SDS011;48772;55.586;37.730;2023-09-30T08:53:58;16.50;;;5.68;;
62711;SDS011;48772;55.586;37.730;2023-09-30T08:56:27;20.20;;;5.95;;
62711;SDS011;48772;55.586;37.730;2023-09-30T08:58:59;10.57;;;5.68;;
62711;SDS011;48772;55.586;37.730;2023-09-30T09:01:26;9.32;;;5.47;;
62711;SDS011;48772;55.586;37.730;2023-09-30T09:03:53;8.43;;;5.97;;
62711;SDS011;48772;55.586;37.730;2023-09-30T09:06:22;12.27;;;6.03;;
62711;SDS011;48772;55.586;37.730;2023-09-30T09:08:49;9.55;;;4.90;;
62711;SDS011;48772;55.586;37.730;2023-09-30T09:11:17;20.17;;;6.57;;
62711;SDS011;48772;55.586;37.730;2023-09-30T09:13:47;10.57;;;5.40;;
62711;SDS011;48772;55.586;37.730;2023-09-30T09:16:16;13.43;;;5.28;;
62711;SDS011;48772;55.586;37.730;2023-09-30T09:18:46;7.85;;;5.65;;
62711;SDS011;48772;55.586;37.730;2023-09-30T09:21:20;11.38;;;5.20;;
62711;SDS011;48772;55.586;37.730;2023-09-30T09:23:51;8.30;;;5.18;;
62711;SDS011;48772;55.586;37.730;2023-09-30T09:26:25;11.55;;;5.70;;
62711;SDS011;48772;55.586;37.730;2023-09-30T09:28:59;12.45;;;5.65;;
62711;SDS011;48772;55.586;37.730;2023-09-30T09:31:36;9.05;;;5.72;;
62711;SDS011;48772;55.586;37.730;2023-09-30T09:50:56;20.35;;;5.25;;
62711;SDS011;48772;55.586;37.730;2023-09-30T09:53:22;11.05;;;4.70;;
62711;SDS011;48772;55.586;37.730;2023-09-30T09:55:49;10.80;;;5.20;;
62711;SDS011;48772;55.586;37.730;2023-09-30T09:58:16;11.15;;;6.15;;
62711;SDS011;48772;55.586;37.730;2023-09-30T10:00:45;12.05;;;5.85;;
62711;SDS011;48772;55.586;37.730;2023-09-30T10:03:12;8.30;;;4.93;;
62711;SDS011;48772;55.586;37.730;2023-09-30T10:05:38;12.75;;;6.57;;
62711;SDS011;48772;55.586;37.730;2023-09-30T10:08:05;10.73;;;7.03;;
62711;SDS011;48772;55.586;37.730;2023-09-30T10:10:36;13.60;;;4.95;;
62711;SDS011;48772;55.586;37.730;2023-09-30T10:13:04;11.77;;;5.93;;
62711;SDS011;48772;55.586;37.730;2023-09-30T10:18:01;11.18;;;6.75;;
62711;SDS011;48772;55.586;37.730;2023-09-30T10:20:33;10.80;;;6.40;;
62711;SDS011;48772;55.586;37.730;2023-09-30T10:25:48;7.53;;;5.53;;
62711;SDS011;48772;55.586;37.730;2023-09-30T10:31:09;14.38;;;6.13;;
62711;SDS011;48772;55.586;37.730;2023-09-30T10:34:26;13.68;;;6.13;;
62711;SDS011;48772;55.586;37.730;2023-09-30T10:36:37;14.38;;;6.68;;
62711;SDS011;48772;55.586;37.730;2023-09-30T10:39:05;10.68;;;5.32;;
62711;SDS011;48772;55.586;37.730;2023-09-30T10:46:57;10.32;;;5.90;;
62711;SDS011;48772;55.586;37.730;2023-09-30T10:51:50;10.43;;;5.75;;
62711;SDS011;48772;55.586;37.730;2023-09-30T10:54:24;11.75;;;5.65;;
62711;SDS011;48772;55.586;37.730;2023-09-30T10:56:51;10.73;;;5.78;;
62711;SDS011;48772;55.586;37.730;2023-09-30T10:59:21;11.25;;;5.60;;
62711;SDS011;48772;55.586;37.730;2023-09-30T11:01:49;12.00;;;5.90;;
62711;SDS011;48772;55.586;37.730;2023-09-30T11:04:16;11.85;;;5.15;;
62711;SDS011;48772;55.586;37.730;2023-09-30T11:06:43;9.18;;;5.43;;
62711;SDS011;48772;55.586;37.730;2023-09-30T11:09:14;9.82;;;5.50;;
62711;SDS011;48772;55.586;37.730;2023-09-30T11:11:43;12.27;;;5.50;;
62711;SDS011;48772;55.586;37.730;2023-09-30T11:16:49;11.10;;;5.72;;
62711;SDS011;48772;55.586;37.730;2023-09-30T11:19:16;9.02;;;5.40;;
62711;SDS011;48772;55.586;37.730;2023-09-30T11:21:42;9.88;;;5.85;;
62711;SDS011;48772;55.586;37.730;2023-09-30T11:24:09;10.13;;;5.57;;
62711;SDS011;48772;55.586;37.730;2023-09-30T11:26:36;9.05;;;5.90;;
62711;SDS011;48772;55.586;37.730;2023-09-30T11:31:32;15.50;;;6.45;;
62711;SDS011;48772;55.586;37.730;2023-09-30T11:33:59;11.45;;;6.13;;
62711;SDS011;48772;55.586;37.730;2023-09-30T11:36:30;16.13;;;5.80;;
62711;SDS011;48772;55.586;37.730;2023-09-30T11:39:00;9.13;;;5.97;;
62711;SDS011;48772;55.586;37.730;2023-09-30T11:41:36;7.97;;;5.55;;
62711;SDS011;48772;55.586;37.730;2023-09-30T11:44:08;9.80;;;5.20;;
62711;SDS011;48772;55.586;37.730;2023-09-30T11:46:49;14.95;;;6.65;;
62711;SDS011;48772;55.586;37.730;2023-09-30T11:51:57;13.88;;;6.55;;
62711;SDS011;48772;55.586;37.730;2023-09-30T11:54:29;11.02;;;6.43;;
62711;SDS011;48772;55.586;37.730;2023-09-30T11:57:02;8.60;;;5.63;;
62711;SDS011;48772;55.586;37.730;2023-09-30T11:59:29;9.90;;;6.15;;
62711;SDS011;48772;55.586;37.730;2023-09-30T12:01:56;9.07;;;5.95;;
62711;SDS011;48772;55.586;37.730;2023-09-30T12:04:22;13.73;;;6.43;;
62711;SDS011;48772;55.586;37.730;2023-09-30T12:06:48;15.18;;;6.30;;
62711;SDS011;48772;55.586;37.730;2023-09-30T12:09:15;10.82;;;6.57;;
62711;SDS011;48772;55.586;37.730;2023-09-30T12:11:42;6.65;;;5.18;;
62711;SDS011;48772;55.586;37.730;2023-09-30T12:14:10;9.02;;;6.25;;
62711;SDS011;48772;55.586;37.730;2023-09-30T12:16:37;8.20;;;5.40;;
62711;SDS011;48772;55.586;37.730;2023-09-30T12:19:03;10.23;;;6.72;;
62711;SDS011;48772;55.586;37.730;2023-09-30T12:21:31;9.18;;;6.03;;
62711;SDS011;48772;55.586;37.730;2023-09-30T12:23:57;11.05;;;6.65;;
62711;SDS011;48772;55.586;37.730;2023-09-30T12:26:24;11.90;;;5.40;;
62711;SDS011;48772;55.586;37.730;2023-09-30T12:28:50;9.43;;;6.30;;
62711;SDS011;48772;55.586;37.730;2023-09-30T12:31:16;9.23;;;6.03;;
62711;SDS011;48772;55.586;37.730;2023-09-30T12:33:43;9.20;;;6.10;;
62711;SDS011;48772;55.586;37.730;2023-09-30T12:36:09;8.38;;;5.78;;
62711;SDS011;48772;55.586;37.730;2023-09-30T12:38:38;7.55;;;5.65;;
62711;SDS011;48772;55.586;37.730;2023-09-30T12:41:04;10.00;;;6.15;;
62711;SDS011;48772;55.586;37.730;2023-09-30T12:43:30;9.32;;;5.80;;
62711;SDS011;48772;55.586;37.730;2023-09-30T12:45:56;9.35;;;6.20;;
62711;SDS011;48772;55.586;37.730;2023-09-30T12:48:22;9.73;;;5.70;;
62711;SDS011;48772;55.586;37.730;2023-09-30T12:50:48;13.20;;;6.25;;
62711;SDS011;48772;55.586;37.730;2023-09-30T12:53:14;13.25;;;7.32;;
62711;SDS011;48772;55.586;37.730;2023-09-30T12:55:40;11.35;;;7.45;;
62711;SDS011;48772;55.586;37.730;2023-09-30T12:58:07;11.57;;;7.15;;
62711;SDS011;48772;55.586;37.730;2023-09-30T13:00:34;13.45;;;6.80;;
62711;SDS011;48772;55.586;37.730;2023-09-30T13:03:01;12.68;;;6.88;;
62711;SDS011;48772;55.586;37.730;2023-09-30T13:05:28;11.48;;;6.63;;
62711;SDS011;48772;55.586;37.730;2023-09-30T13:07:57;7.97;;;5.47;;
62711;SDS011;48772;55.586;37.730;2023-09-30T13:10:23;12.05;;;7.30;;
62711;SDS011;48772;55.586;37.730;2023-09-30T13:12:49;11.05;;;6.10;;
62711;SDS011;48772;55.586;37.730;2023-09-30T13:15:16;14.77;;;6.75;;
62711;SDS011;48772;55.586;37.730;2023-09-30T13:17:43;9.63;;;5.82;;
62711;SDS011;48772;55.586;37.730;2023-09-30T13:20:09;12.25;;;6.93;;
62711;SDS011;48772;55.586;37.730;2023-09-30T13:22:37;11.02;;;7.10;;
62711;SDS011;48772;55.586;37.730;2023-09-30T13:25:05;10.02;;;6.63;;
62711;SDS011;48772;55.586;37.730;2023-09-30T13:27:33;10.68;;;6.78;;
62711;SDS011;48772;55.586;37.730;2023-09-30T13:29:59;12.10;;;5.90;;
62711;SDS011;48772;55.586;37.730;2023-09-30T13:32:30;13.80;;;6.32;;
62711;SDS011;48772;55.586;37.730;2023-09-30T13:34:57;10.73;;;6.50;;
62711;SDS011;48772;55.586;37.730;2023-09-30T13:37:24;17.25;;;6.38;;
62711;SDS011;48772;55.586;37.730;2023-09-30T13:39:55;12.82;;;6.60;;
62711;SDS011;48772;55.586;37.730;2023-09-30T13:42:21;11.00;;;6.57;;
62711;SDS011;48772;55.586;37.730;2023-09-30T13:44:46;12.85;;;7.13;;
62711;SDS011;48772;55.586;37.730;2023-09-30T13:47:13;10.35;;;6.28;;
62711;SDS011;48772;55.586;37.730;2023-09-30T13:49:39;13.13;;;7.25;;
62711;SDS011;48772;55.586;37.730;2023-09-30T13:52:05;16.63;;;6.75;;
62711;SDS011;48772;55.586;37.730;2023-09-30T13:54:30;14.30;;;6.03;;
62711;SDS011;48772;55.586;37.730;2023-09-30T13:56:56;11.70;;;6.38;;
62711;SDS011;48772;55.586;37.730;2023-09-30T13:59:22;13.90;;;6.32;;
62711;SDS011;48772;55.586;37.730;2023-09-30T14:01:49;12.30;;;6.75;;
62711;SDS011;48772;55.586;37.730;2023-09-30T14:04:15;10.00;;;6.80;;
62711;SDS011;48772;55.586;37.730;2023-09-30T14:06:42;13.18;;;6.75;;
62711;SDS011;48772;55.586;37.730;2023-09-30T14:09:08;10.50;;;6.68;;
62711;SDS011;48772;55.586;37.730;2023-09-30T14:11:40;12.10;;;7.05;;
62711;SDS011;48772;55.586;37.730;2023-09-30T14:14:07;11.02;;;6.40;;
62711;SDS011;48772;55.586;37.730;2023-09-30T14:16:35;13.68;;;7.22;;
62711;SDS011;48772;55.586;37.730;2023-09-30T14:19:02;11.45;;;7.00;;
62711;SDS011;48772;55.586;37.730;2023-09-30T14:21:29;20.52;;;7.53;;
62711;SDS011;48772;55.586;37.730;2023-09-30T14:23:57;12.10;;;8.27;;
62711;SDS011;48772;55.586;37.730;2023-09-30T14:26:23;20.33;;;8.23;;
62711;SDS011;48772;55.586;37.730;2023-09-30T14:28:50;17.42;;;8.52;;
62711;SDS011;48772;55.586;37.730;2023-09-30T14:31:16;10.55;;;8.35;;
62711;SDS011;48772;55.586;37.730;2023-09-30T14:33:43;15.13;;;8.35;;
62711;SDS011;48772;55.586;37.730;2023-09-30T14:36:09;17.77;;;8.38;;
62711;SDS011;48772;55.586;37.730;2023-09-30T14:38:35;19.10;;;10.43;;
62711;SDS011;48772;55.586;37.730;2023-09-30T14:41:05;17.15;;;9.80;;
62711;SDS011;48772;55.586;37.730;2023-09-30T14:43:33;18.40;;;10.30;;
62711;SDS011;48772;55.586;37.730;2023-09-30T14:46:02;19.35;;;11.20;;
62711;SDS011;48772;55.586;37.730;2023-09-30T14:48:29;16.05;;;10.57;;
62711;SDS011;48772;55.586;37.730;2023-09-30T14:50:55;17.15;;;10.18;;
62711;SDS011;48772;55.586;37.730;2023-09-30T14:53:22;19.10;;;9.30;;
62711;SDS011;48772;55.586;37.730;2023-09-30T14:55:48;17.58;;;9.20;;
62711;SDS011;48772;55.586;37.730;2023-09-30T14:58:14;21.65;;;8.70;;